Time;durP1;ratioP1;P1;durP2;ratioP2;P2;SDS_P1;SDS_P2;PMS_P1;PMS_P2;Temp;Humidity;BMP_temperature;BMP_pressure;BME280_temperature;BME280_humidity;BME280_pressure;Samples;Min_cycle;Max_cycle;Signal;HPM_P1;HPM_P2
2023/08/12 00:01:06;;;;;;;;;;;;;;;;;;5023557;28;20008;-76
2023/08/12 00:03:53;;;;;;;;;;;;;;;;;;5017094;28;19939;-76
2023/08/12 00:06:39;;;;;;;;;;;;;;;;;;5017390;28;20329;-75
2023/08/12 00:09:26;;;;;;;;;;;;;;;;;;5020667;28;19925;-76
2023/08/12 00:12:12;;;;;;;;;;;;;;;;;;5017697;28;20636;-76
2023/08/12 00:14:58;;;;;;;;;;;;;;;;;;5024847;28;19919;-75
2023/08/12 00:17:45;;;;;;;;;;;;;;;;;;5022466;28;19928;-76
2023/08/12 00:20:31;;;;;;;;;;;;;;;;;;5024849;28;19927;-76
2023/08/12 00:23:18;;;;;;;;;;;;;;;;;;5023625;28;20293;-76
2023/08/12 00:26:04;;;;;;;;;;;;;;;;;;5025305;28;19921;-75
2023/08/12 00:28:51;;;;;;;;;;;;;;;;;;5012220;28;19917;-75
2023/08/12 00:31:37;;;;;;;;;;;;;;;;;;5019479;28;19940;-74
2023/08/12 00:34:24;;;;;;;;;;;;;;;;;;5018693;28;20309;-74
2023/08/12 00:37:10;;;;;;;;;;;;;;;;;;5015953;28;19927;-74
2023/08/12 00:39:57;;;;;;;;;;;;;;;;;;5017724;28;20682;-74
2023/08/12 00:42:43;;;;;;;;;;;;;;;;;;5014871;28;19925;-75
2023/08/12 00:45:30;;;;;;;;;;;;;;;;;;5018547;28;19918;-75
2023/08/12 00:48:16;;;;;;;;;;;;;;;;;;5009572;28;19936;-75
2023/08/12 00:51:03;;;;;;;;;;;;;;;;;;5019761;28;19921;-75
2023/08/12 00:53:49;;;;;;;;;;;;;;;;;;5020161;28;19917;-74
2023/08/12 00:56:36;;;;;;;;;;;;;;;;;;5012787;28;19917;-76
2023/08/12 00:59:23;;;;;;;;;;;;;;;;;;5013330;28;19913;-76
2023/08/12 01:02:10;;;;;;;;;;;;;;;;;;5015906;28;19948;-76
2023/08/12 01:04:56;;;;;;;;;;;;;;;;;;5014479;28;19917;-75
2023/08/12 01:07:43;;;;;;;;;;;;;;;;;;5022673;28;19920;-75
2023/08/12 01:10:29;;;;;;;;;;;;;;;;;;5023218;28;19964;-75
2023/08/12 01:13:16;;;;;;;;;;;;;;;;;;5025663;28;19913;-75
2023/08/12 01:16:03;;;;;;;;;;;;;;;;;;5019593;28;19929;-75
2023/08/12 01:18:49;;;;;;;;;;;;;;;;;;5016693;28;19922;-75
2023/08/12 01:21:36;;;;;;;;;;;;;;;;;;5021783;28;19940;-75
2023/08/12 01:24:22;;;;;;;;;;;;;;;;;;5013341;28;19913;-75
2023/08/12 01:27:09;;;;;;;;;;;;;;;;;;5025124;28;19928;-74
2023/08/12 01:29:55;;;;;;;;;;;;;;;;;;5022314;28;19924;-75
2023/08/12 01:32:42;;;;;;;;;;;;;;;;;;5020326;28;19918;-75
2023/08/12 01:35:28;;;;;;;;;;;;;;;;;;5023485;28;19921;-75
2023/08/12 01:38:15;;;;;;;;;;;;;;;;;;5012093;28;20300;-75
2023/08/12 01:41:01;;;;;;;;;;;;;;;;;;5017025;28;20320;-76
2023/08/12 01:43:48;;;;;;;;;;;;;;;;;;5009572;28;19922;-76
2023/08/12 01:46:34;;;;;;;;;;;;;;;;;;5015573;28;20273;-76
2023/08/12 01:49:23;;;;;;;;;;;;;;;;;;5025608;28;19927;-76
2023/08/12 01:52:09;;;;;;;;;;;;;;;;;;5024215;28;19924;-76
2023/08/12 01:54:55;;;;;;;;;;;;;;;;;;5018038;28;20355;-76
2023/08/12 01:57:42;;;;;;;;;;;;;;;;;;5022328;28;19921;-76
2023/08/12 02:00:29;;;;;;;;;;;;;;;;;;5019221;28;20011;-76
2023/08/12 02:03:15;;;;;;;;;;;;;;;;;;5020378;28;19921;-74
2023/08/12 02:06:02;;;;;;;;;;;;;;;;;;5020318;28;19940;-74
2023/08/12 02:08:48;;;;;;;;;;;;;;;;;;5021684;28;19917;-75
2023/08/12 02:11:34;;;;;;;;;;;;;;;;;;5023816;28;19917;-74
2023/08/12 02:14:21;;;;;;;;;;;;;;;;;;5024857;28;20652;-74
2023/08/12 02:17:08;;;;;;;;;;;;;;;;;;5027816;28;19921;-73
2023/08/12 02:19:54;;;;;;;;;;;;;;;;;;5027355;28;19913;-74
2023/08/12 02:22:40;;;;;;;;;;;;;;;;;;5027909;28;20479;-74
2023/08/12 02:25:27;;;;;;;;;;;;;;;;;;5001199;28;19917;-75
2023/08/12 02:28:13;;;;;;;;;;;;;;;;;;5023450;28;21055;-74
2023/08/12 02:31:00;;;;;;;;;;;;;;;;;;5022670;28;19924;-78
2023/08/12 02:33:46;;;;;;;;;;;;;;;;;;5019703;28;20270;-74
2023/08/12 02:36:33;;;;;;;;;;;;;;;;;;5021167;28;19928;-74
2023/08/12 02:39:19;;;;;;;;;;;;;;;;;;5017985;28;19913;-75
2023/08/12 02:42:06;;;;;;;;;;;;;;;;;;5020587;28;19932;-74
2023/08/12 02:44:52;;;;;;;;;;;;;;;;;;5015855;28;19913;-75
2023/08/12 02:47:39;;;;;;;;;;;;;;;;;;5024206;28;19953;-77
2023/08/12 02:50:25;;;;;;;;;;;;;;;;;;5016125;28;19917;-76
2023/08/12 02:53:12;;;;;;;;;;;;;;;;;;5008485;28;19929;-76
2023/08/12 02:55:58;;;;;;;;;;;;;;;;;;5024304;28;19922;-76
2023/08/12 02:58:45;;;;;;;;;;;;;;;;;;5024242;28;19921;-76
2023/08/12 03:01:31;;;;;;;;;;;;;;;;;;5020501;28;19936;-75
2023/08/12 03:04:18;;;;;;;;;;;;;;;;;;5024231;28;19921;-75
2023/08/12 03:07:04;;;;;;;;;;;;;;;;;;5020386;28;19929;-75
2023/08/12 03:09:51;;;;;;;;;;;;;;;;;;5022108;28;19924;-76
2023/08/12 03:12:37;;;;;;;;;;;;;;;;;;5022375;28;19932;-75
2023/08/12 03:15:24;;;;;;;;;;;;;;;;;;5023761;28;19925;-76
2023/08/12 03:18:10;;;;;;;;;;;;;;;;;;5020150;28;19917;-76
2023/08/12 03:20:57;;;;;;;;;;;;;;;;;;5020607;28;19925;-75
2023/08/12 03:23:43;;;;;;;;;;;;;;;;;;5023894;28;20215;-75
2023/08/12 03:26:30;;;;;;;;;;;;;;;;;;5024452;28;19916;-76
2023/08/12 03:29:16;;;;;;;;;;;;;;;;;;5023519;28;19947;-77
2023/08/12 03:32:02;;;;;;;;;;;;;;;;;;5018811;28;20383;-76
2023/08/12 03:34:49;;;;;;;;;;;;;;;;;;5028048;28;19921;-76
2023/08/12 03:37:35;;;;;;;;;;;;;;;;;;5021690;28;20447;-76
2023/08/12 03:40:22;;;;;;;;;;;;;;;;;;5022944;28;19921;-75
2023/08/12 03:43:08;;;;;;;;;;;;;;;;;;5018007;28;20292;-76
2023/08/12 03:45:55;;;;;;;;;;;;;;;;;;5022938;28;19925;-75
2023/08/12 03:48:41;;;;;;;;;;;;;;;;;;5022936;28;19952;-75
2023/08/12 03:51:28;;;;;;;;;;;;;;;;;;5017710;28;19933;-75
2023/08/12 03:54:14;;;;;;;;;;;;;;;;;;5023678;28;19917;-75
2023/08/12 03:57:01;;;;;;;;;;;;;;;;;;5019269;28;19928;-75
2023/08/12 03:59:47;;;;;;;;;;;;;;;;;;5013898;28;19923;-75
2023/08/12 04:02:34;;;;;;;;;;;;;;;;;;5018506;28;19929;-75
2023/08/12 04:05:20;;;;;;;;;;;;;;;;;;5025105;28;19913;-75
2023/08/12 04:08:07;;;;;;;;;;;;;;;;;;5020577;28;19913;-74
2023/08/12 04:10:53;;;;;;;;;;;;;;;;;;5007512;28;20214;-75
2023/08/12 04:13:40;;;;;;;;;;;;;;;;;;5020093;28;19935;-75
2023/08/12 04:16:26;;;;;;;;;;;;;;;;;;5022965;28;19921;-74
2023/08/12 04:19:12;;;;;;;;;;;;;;;;;;5017178;28;19924;-74
2023/08/12 04:21:59;;;;;;;;;;;;;;;;;;5022730;28;19929;-75
2023/08/12 04:24:45;;;;;;;;;;;;;;;;;;5022048;28;19917;-75
2023/08/12 04:27:32;;;;;;;;;;;;;;;;;;5013608;28;20044;-76
2023/08/12 04:30:18;;;;;;;;;;;;;;;;;;5018443;28;19929;-76
2023/08/12 04:33:05;;;;;;;;;;;;;;;;;;5021301;28;19928;-76
2023/08/12 04:35:51;;;;;;;;;;;;;;;;;;5021975;28;19928;-76
2023/08/12 04:38:39;;;;;;;;;;;;;;;;;;5020302;28;19925;-76
2023/08/12 04:41:25;;;;;;;;;;;;;;;;;;5021809;28;19975;-76
2023/08/12 04:44:12;;;;;;;;;;;;;;;;;;5009348;28;19951;-76
2023/08/12 04:46:58;;;;;;;;;;;;;;;;;;5016760;28;19944;-76
2023/08/12 04:49:45;;;;;;;;;;;;;;;;;;4985202;28;19913;-76
2023/08/12 04:52:31;;;;;;;;;;;;;;;;;;5018537;28;19921;-76
2023/08/12 04:55:18;;;;;;;;;;;;;;;;;;5007934;28;19927;-77
2023/08/12 04:58:05;;;;;;;;;;;;;;;;;;5014899;28;19917;-77
2023/08/12 05:00:54;;;;;;;;;;;;;;;;;;5014871;28;19917;-76
2023/08/12 05:03:41;;;;;;;;;;;;;;;;;;5016079;28;19944;-75
2023/08/12 05:06:27;;;;;;;;;;;;;;;;;;5024957;28;19921;-75
2023/08/12 05:09:13;;;;;;;;;;;;;;;;;;5021369;28;19921;-76
2023/08/12 05:12:00;;;;;;;;;;;;;;;;;;5015883;28;19996;-75
2023/08/12 05:14:46;;;;;;;;;;;;;;;;;;5017148;28;19917;-75
2023/08/12 05:17:33;;;;;;;;;;;;;;;;;;5028832;28;19921;-74
2023/08/12 05:20:19;;;;;;;;;;;;;;;;;;5020363;28;19944;-74
2023/08/12 05:23:06;;;;;;;;;;;;;;;;;;5024324;28;20292;-75
2023/08/12 05:25:52;;;;;;;;;;;;;;;;;;5023429;28;19924;-74
2023/08/12 05:28:39;;;;;;;;;;;;;;;;;;5020241;28;19925;-73
2023/08/12 05:31:25;;;;;;;;;;;;;;;;;;5018728;28;19928;-74
2023/08/12 05:34:12;;;;;;;;;;;;;;;;;;5018232;28;19928;-74
2023/08/12 05:36:58;;;;;;;;;;;;;;;;;;5017904;28;20122;-74
2023/08/12 05:39:45;;;;;;;;;;;;;;;;;;5006243;28;19921;-73
2023/08/12 05:42:31;;;;;;;;;;;;;;;;;;5015955;28;20246;-74
2023/08/12 05:45:18;;;;;;;;;;;;;;;;;;4996243;28;19921;-74
2023/08/12 05:48:04;;;;;;;;;;;;;;;;;;5022779;28;19925;-74
2023/08/12 05:50:50;;;;;;;;;;;;;;;;;;5021063;28;19917;-75
2023/08/12 05:53:37;;;;;;;;;;;;;;;;;;5018020;28;19925;-75
2023/08/12 05:56:23;;;;;;;;;;;;;;;;;;5022092;28;19913;-75
2023/08/12 05:59:10;;;;;;;;;;;;;;;;;;5018893;28;20394;-74
2023/08/12 06:01:56;;;;;;;;;;;;;;;;;;5013489;28;19925;-75
2023/08/12 06:04:43;;;;;;;;;;;;;;;;;;5017296;28;19925;-74
2023/08/12 06:07:29;;;;;;;;;;;;;;;;;;5012652;28;19923;-75
2023/08/12 06:10:16;;;;;;;;;;;;;;;;;;5023010;28;19936;-75
2023/08/12 06:13:02;;;;;;;;;;;;;;;;;;5017987;28;19924;-75
2023/08/12 06:15:49;;;;;;;;;;;;;;;;;;5011816;28;19917;-75
2023/08/12 06:18:35;;;;;;;;;;;;;;;;;;5018186;28;19931;-79
2023/08/12 06:21:22;;;;;;;;;;;;;;;;;;4980984;28;19929;-82
2023/08/12 06:24:08;;;;;;;;;;;;;;;;;;5017498;28;20435;-81
2023/08/12 06:26:55;;;;;;;;;;;;;;;;;;4999523;28;19922;-79
2023/08/12 06:29:41;;;;;;;;;;;;;;;;;;5018858;28;19947;-80
2023/08/12 06:32:28;;;;;;;;;;;;;;;;;;5024746;28;19928;-79
2023/08/12 06:35:14;;;;;;;;;;;;;;;;;;5025064;28;19927;-79
2023/08/12 06:38:01;;;;;;;;;;;;;;;;;;5022038;28;19921;-79
2023/08/12 06:40:47;;;;;;;;;;;;;;;;;;5022200;28;19932;-78
2023/08/12 06:43:34;;;;;;;;;;;;;;;;;;5017372;28;20385;-76
2023/08/12 06:46:21;;;;;;;;;;;;;;;;;;5022515;28;20277;-77
2023/08/12 06:49:07;;;;;;;;;;;;;;;;;;5025435;28;19925;-76
2023/08/12 06:51:54;;;;;;;;;;;;;;;;;;5022146;28;20297;-76
2023/08/12 06:54:40;;;;;;;;;;;;;;;;;;5019513;28;19932;-79
2023/08/12 06:57:27;;;;;;;;;;;;;;;;;;5020517;28;20553;-79
2023/08/12 07:00:13;;;;;;;;;;;;;;;;;;5021069;28;19923;-79
2023/08/12 07:03:00;;;;;;;;;;;;;;;;;;5012033;28;20486;-80
2023/08/12 07:05:46;;;;;;;;;;;;;;;;;;4993144;28;19922;-79
2023/08/12 07:08:33;;;;;;;;;;;;;;;;;;5016536;28;20373;-79
2023/08/12 07:11:19;;;;;;;;;;;;;;;;;;5009198;28;19925;-79
2023/08/12 07:14:06;;;;;;;;;;;;;;;;;;5024224;28;19928;-82
2023/08/12 07:16:52;;;;;;;;;;;;;;;;;;5020017;28;19996;-80
2023/08/12 07:19:39;;;;;;;;;;;;;;;;;;5021184;28;19918;-79
2023/08/12 07:22:25;;;;;;;;;;;;;;;;;;5020333;28;19928;-79
2023/08/12 07:25:12;;;;;;;;;;;;;;;;;;5026033;28;19920;-79
2023/08/12 07:27:58;;;;;;;;;;;;;;;;;;5024435;28;19971;-79
2023/08/12 07:30:45;;;;;;;;;;;;;;;;;;5019007;28;19913;-80
2023/08/12 07:33:31;;;;;;;;;;;;;;;;;;5025077;28;19928;-78
2023/08/12 07:36:18;;;;;;;;;;;;;;;;;;5019597;28;19928;-79
2023/08/12 07:39:04;;;;;;;;;;;;;;;;;;5013039;28;19928;-79
2023/08/12 07:41:50;;;;;;;;;;;;;;;;;;5000039;28;19929;-79
2023/08/12 07:44:37;;;;;;;;;;;;;;;;;;5021331;28;23073;-77
2023/08/12 07:47:23;;;;;;;;;;;;;;;;;;5019842;28;19932;-78
2023/08/12 07:50:10;;;;;;;;;;;;;;;;;;5019528;28;20571;-78
2023/08/12 07:52:57;;;;;;;;;;;;;;;;;;5021545;28;20024;-77
2023/08/12 07:55:43;;;;;;;;;;;;;;;;;;5014326;28;19921;-76
2023/08/12 07:58:30;;;;;;;;;;;;;;;;;;5017582;28;20387;-78
2023/08/12 08:01:16;;;;;;;;;;;;;;;;;;5010817;28;19921;-77
2023/08/12 08:04:03;;;;;;;;;;;;;;;;;;5017924;28;19932;-78
2023/08/12 08:06:49;;;;;;;;;;;;;;;;;;5016836;28;19940;-80
2023/08/12 08:09:36;;;;;;;;;;;;;;;;;;5021387;28;19921;-78
2023/08/12 08:12:22;;;;;;;;;;;;;;;;;;5007427;28;20296;-79
2023/08/12 08:15:09;;;;;;;;;;;;;;;;;;5009642;28;20288;-79
2023/08/12 08:17:55;;;;;;;;;;;;;;;;;;5004379;28;20335;-80
2023/08/12 08:20:42;;;;;;;;;;;;;;;;;;5002595;28;19918;-80
2023/08/12 08:23:28;;;;;;;;;;;;;;;;;;5021231;28;20360;-80
2023/08/12 08:26:15;;;;;;;;;;;;;;;;;;5007811;28;19913;-80
2023/08/12 08:29:02;;;;;;;;;;;;;;;;;;5017523;28;19924;-80
2023/08/12 08:31:49;;;;;;;;;;;;;;;;;;5023035;28;19917;-80
2023/08/12 08:34:35;;;;;;;;;;;;;;;;;;5019542;28;19925;-79
2023/08/12 08:37:22;;;;;;;;;;;;;;;;;;5021992;28;19921;-79
2023/08/12 08:40:08;;;;;;;;;;;;;;;;;;5020699;28;19921;-80
2023/08/12 08:42:55;;;;;;;;;;;;;;;;;;5021153;28;19970;-79
2023/08/12 08:45:41;;;;;;;;;;;;;;;;;;5006058;28;19925;-79
2023/08/12 08:48:28;;;;;;;;;;;;;;;;;;5022410;28;19936;-78
2023/08/12 08:51:14;;;;;;;;;;;;;;;;;;5019012;28;19925;-78
2023/08/12 08:54:01;;;;;;;;;;;;;;;;;;5023150;28;19928;-78
2023/08/12 08:56:47;;;;;;;;;;;;;;;;;;5020161;28;19921;-79
2023/08/12 08:59:34;;;;;;;;;;;;;;;;;;5023916;28;19920;-79
2023/08/12 09:02:20;;;;;;;;;;;;;;;;;;5024012;28;19925;-79
2023/08/12 09:05:07;;;;;;;;;;;;;;;;;;5021098;28;19946;-78
2023/08/12 09:07:54;;;;;;;;;;;;;;;;;;5019021;28;19925;-78
2023/08/12 09:10:41;;;;;;;;;;;;;;;;;;5020753;28;19950;-80
2023/08/12 09:13:28;;;;;;;;;;;;;;;;;;5020235;28;19924;-79
2023/08/12 09:16:14;;;;;;;;;;;;;;;;;;5019679;28;19924;-79
2023/08/12 09:19:01;;;;;;;;;;;;;;;;;;5017190;28;19932;-80
2023/08/12 09:21:47;;;;;;;;;;;;;;;;;;5020895;28;20478;-79
2023/08/12 09:24:34;;;;;;;;;;;;;;;;;;5020258;28;19925;-79
2023/08/12 09:27:20;;;;;;;;;;;;;;;;;;5014565;28;20406;-79
2023/08/12 09:30:07;;;;;;;;;;;;;;;;;;5018959;28;19932;-79
2023/08/12 09:32:53;;;;;;;;;;;;;;;;;;5006642;28;19925;-79
2023/08/12 09:35:40;;;;;;;;;;;;;;;;;;5017359;28;19917;-79
2023/08/12 09:38:27;;;;;;;;;;;;;;;;;;5017161;28;19917;-79
2023/08/12 09:41:13;;;;;;;;;;;;;;;;;;5021442;28;19928;-79
2023/08/12 09:44:00;;;;;;;;;;;;;;;;;;5017847;28;19936;-79
2023/08/12 09:46:46;;;;;;;;;;;;;;;;;;5018814;28;19939;-79
2023/08/12 09:49:33;;;;;;;;;;;;;;;;;;5020036;28;19929;-78
2023/08/12 09:52:19;;;;;;;;;;;;;;;;;;5017438;28;19943;-78
2023/08/12 09:55:06;;;;;;;;;;;;;;;;;;5021089;28;19929;-78
2023/08/12 09:57:52;;;;;;;;;;;;;;;;;;5020297;28;19924;-78
2023/08/12 10:00:41;;;;;;;;;;;;;;;;;;5019216;28;19951;-78
2023/08/12 10:03:27;;;;;;;;;;;;;;;;;;5016142;28;19929;-78
2023/08/12 10:06:15;;;;;;;;;;;;;;;;;;5023105;28;19917;-78
2023/08/12 10:09:01;;;;;;;;;;;;;;;;;;5021037;28;19928;-78
2023/08/12 10:11:48;;;;;;;;;;;;;;;;;;5020160;28;19922;-78
2023/08/12 10:14:34;;;;;;;;;;;;;;;;;;5020692;28;19928;-78
2023/08/12 10:17:21;;;;;;;;;;;;;;;;;;5026521;28;19917;-78
2023/08/12 10:20:08;;;;;;;;;;;;;;;;;;5025219;28;19921;-79
2023/08/12 10:22:54;;;;;;;;;;;;;;;;;;5012839;28;19932;-78
2023/08/12 10:25:41;;;;;;;;;;;;;;;;;;5014012;28;19928;-78
2023/08/12 10:28:28;;;;;;;;;;;;;;;;;;5013138;28;19928;-78
2023/08/12 10:31:14;;;;;;;;;;;;;;;;;;5012289;28;20409;-78
2023/08/12 10:34:01;;;;;;;;;;;;;;;;;;5017045;28;20012;-78
2023/08/12 10:36:47;;;;;;;;;;;;;;;;;;5015322;28;19921;-78
2023/08/12 10:39:34;;;;;;;;;;;;;;;;;;5018700;28;20327;-78
2023/08/12 10:42:20;;;;;;;;;;;;;;;;;;5019362;28;19929;-78
2023/08/12 10:45:07;;;;;;;;;;;;;;;;;;5016251;28;19926;-79
2023/08/12 10:47:53;;;;;;;;;;;;;;;;;;5016532;28;19960;-80
2023/08/12 10:50:39;;;;;;;;;;;;;;;;;;5013604;28;19928;-80
2023/08/12 10:53:29;;;;;;;;;;;;;;;;;;5022406;28;19929;-80
2023/08/12 10:56:15;;;;;;;;;;;;;;;;;;5015494;28;19956;-82
2023/08/12 10:59:02;;;;;;;;;;;;;;;;;;5019661;28;19914;-81
2023/08/12 11:01:48;;;;;;;;;;;;;;;;;;5018425;28;19936;-83
2023/08/12 11:04:35;;;;;;;;;;;;;;;;;;5023961;28;19917;-82
2023/08/12 11:07:21;;;;;;;;;;;;;;;;;;5032573;28;19921;-86
2023/08/12 11:10:08;;;;;;;;;;;;;;;;;;5037820;28;19918;-85
2023/08/12 11:12:55;;;;;;;;;;;;;;;;;;5013438;28;20396;-85
2023/08/12 11:15:41;;;;;;;;;;;;;;;;;;5028374;28;20631;-83
2023/08/12 11:18:28;;;;;;;;;;;;;;;;;;5028182;28;19948;-83
2023/08/12 11:21:14;;;;;;;;;;;;;;;;;;5038205;28;20337;-83
2023/08/12 11:24:01;;;;;;;;;;;;;;;;;;5016778;28;19922;-84
2023/08/12 11:26:47;;;;;;;;;;;;;;;;;;5011016;28;19917;-83
2023/08/12 11:29:34;;;;;;;;;;;;;;;;;;5026057;28;20509;-83
2023/08/12 11:32:20;;;;;;;;;;;;;;;;;;5012612;28;19929;-82
2023/08/12 11:35:07;;;;;;;;;;;;;;;;;;5007652;28;19928;-84
2023/08/12 11:37:55;;;;;;;;;;;;;;;;;;4994864;28;19923;-82
2023/08/12 11:40:41;;;;;;;;;;;;;;;;;;5024359;28;19926;-82
2023/08/12 11:43:29;;;;;;;;;;;;;;;;;;5005835;28;20316;-83
2023/08/12 11:46:16;;;;;;;;;;;;;;;;;;5002986;28;19929;-84
2023/08/12 11:49:02;;;;;;;;;;;;;;;;;;5009833;28;19921;-84
2023/08/12 11:51:49;;;;;;;;;;;;;;;;;;5006118;28;19917;-83
2023/08/12 11:54:36;;;;;;;;;;;;;;;;;;5019455;28;19924;-85
2023/08/12 11:57:25;;;;;;;;;;;;;;;;;;5010442;28;19983;-85
2023/08/12 12:00:18;;;;;;;;;;;;;;;;;;4993480;28;19929;-84
2023/08/12 12:03:06;;;;;;;;;;;;;;;;;;4994898;28;19936;-84
2023/08/12 12:05:52;;;;;;;;;;;;;;;;;;4987337;28;20344;-85
2023/08/12 12:08:38;;;;;;;;;;;;;;;;;;5007987;28;19917;-85
2023/08/12 12:11:26;;;;;;;;;;;;;;;;;;5019759;28;19964;-85
2023/08/12 12:14:15;;;;;;;;;;;;;;;;;;5025855;28;19921;-85
2023/08/12 12:17:01;;;;;;;;;;;;;;;;;;5025407;28;19927;-85
2023/08/12 12:19:47;;;;;;;;;;;;;;;;;;5010345;28;19921;-85
2023/08/12 12:22:34;;;;;;;;;;;;;;;;;;5022407;28;19925;-86
2023/08/12 12:25:20;;;;;;;;;;;;;;;;;;4993873;28;20309;-85
2023/08/12 12:28:07;;;;;;;;;;;;;;;;;;5016135;28;19929;-86
2023/08/12 12:30:53;;;;;;;;;;;;;;;;;;5023467;28;19921;-87
2023/08/12 12:33:40;;;;;;;;;;;;;;;;;;5025058;28;19913;-87
2023/08/12 12:36:26;;;;;;;;;;;;;;;;;;5023935;28;19921;-87
2023/08/12 12:39:13;;;;;;;;;;;;;;;;;;5022399;28;19921;-88
2023/08/12 12:41:59;;;;;;;;;;;;;;;;;;5023101;28;19925;-86
2023/08/12 12:44:46;;;;;;;;;;;;;;;;;;5022456;28;19932;-86
2023/08/12 12:47:32;;;;;;;;;;;;;;;;;;5024646;28;19929;-80
2023/08/12 12:50:19;;;;;;;;;;;;;;;;;;5020051;28;20643;-79
2023/08/12 12:53:05;;;;;;;;;;;;;;;;;;5022957;28;19949;-80
2023/08/12 12:55:52;;;;;;;;;;;;;;;;;;5023145;28;20293;-79
2023/08/12 12:58:39;;;;;;;;;;;;;;;;;;5019354;28;19925;-80
2023/08/12 13:01:26;;;;;;;;;;;;;;;;;;5023030;28;19921;-81
2023/08/12 13:04:12;;;;;;;;;;;;;;;;;;5009915;28;19931;-80
2023/08/12 13:06:59;;;;;;;;;;;;;;;;;;5021995;28;20300;-81
2023/08/12 13:09:45;;;;;;;;;;;;;;;;;;4999375;28;20358;-80
2023/08/12 13:12:32;;;;;;;;;;;;;;;;;;5021674;28;20296;-79
2023/08/12 13:15:18;;;;;;;;;;;;;;;;;;5025592;28;19925;-79
2023/08/12 13:18:05;;;;;;;;;;;;;;;;;;5020259;28;20655;-79
2023/08/12 13:20:51;;;;;;;;;;;;;;;;;;5018527;28;19928;-79
2023/08/12 13:23:38;;;;;;;;;;;;;;;;;;5006965;28;19941;-81
2023/08/12 13:26:24;;;;;;;;;;;;;;;;;;5016065;28;19924;-79
2023/08/12 13:29:11;;;;;;;;;;;;;;;;;;5020777;28;19995;-80
2023/08/12 13:31:57;;;;;;;;;;;;;;;;;;5022647;28;20289;-80
2023/08/12 13:34:46;;;;;;;;;;;;;;;;;;5019487;28;19940;-79
2023/08/12 13:37:32;;;;;;;;;;;;;;;;;;5019521;28;20301;-78
2023/08/12 13:40:19;;;;;;;;;;;;;;;;;;5019687;28;19940;-77
2023/08/12 13:43:05;;;;;;;;;;;;;;;;;;5027022;28;19936;-77
2023/08/12 13:45:52;;;;;;;;;;;;;;;;;;5021223;28;19917;-75
2023/08/12 13:48:38;;;;;;;;;;;;;;;;;;5025178;28;19925;-75
2023/08/12 13:51:24;;;;;;;;;;;;;;;;;;5019848;28;19925;-74
2023/08/12 13:54:11;;;;;;;;;;;;;;;;;;5021978;28;19925;-76
2023/08/12 13:56:57;;;;;;;;;;;;;;;;;;5021854;28;19921;-76
2023/08/12 13:59:44;;;;;;;;;;;;;;;;;;5024558;28;19921;-75
2023/08/12 14:02:30;;;;;;;;;;;;;;;;;;4993940;28;19928;-75
2023/08/12 14:05:17;;;;;;;;;;;;;;;;;;5018497;28;19917;-75
2023/08/12 14:08:03;;;;;;;;;;;;;;;;;;5018208;28;19921;-75
2023/08/12 14:10:50;;;;;;;;;;;;;;;;;;5022027;28;19921;-75
2023/08/12 14:13:36;;;;;;;;;;;;;;;;;;5023741;28;19936;-75
2023/08/12 14:16:23;;;;;;;;;;;;;;;;;;5002009;28;19927;-73
2023/08/12 14:19:09;;;;;;;;;;;;;;;;;;5022481;28;19917;-75
2023/08/12 14:21:56;;;;;;;;;;;;;;;;;;5024983;28;19928;-75
2023/08/12 14:24:44;;;;;;;;;;;;;;;;;;5022763;28;20802;-74
2023/08/12 14:27:30;;;;;;;;;;;;;;;;;;5008766;28;19921;-76
2023/08/12 14:30:17;;;;;;;;;;;;;;;;;;5024568;28;19943;-74
2023/08/12 14:33:05;;;;;;;;;;;;;;;;;;5013252;28;19928;-75
2023/08/12 14:35:54;;;;;;;;;;;;;;;;;;5008440;28;19921;-75
2023/08/12 14:38:40;;;;;;;;;;;;;;;;;;5023162;28;19924;-74
2023/08/12 14:41:27;;;;;;;;;;;;;;;;;;5009995;28;19924;-74
2023/08/12 14:44:13;;;;;;;;;;;;;;;;;;5025780;28;19929;-74
2023/08/12 14:46:59;;;;;;;;;;;;;;;;;;5021550;28;19931;-74
2023/08/12 14:49:49;;;;;;;;;;;;;;;;;;5020160;28;19921;-74
2023/08/12 14:52:36;;;;;;;;;;;;;;;;;;5022261;28;20243;-74
2023/08/12 14:55:22;;;;;;;;;;;;;;;;;;5023120;28;20020;-74
2023/08/12 14:58:09;;;;;;;;;;;;;;;;;;5024221;28;19928;-75
2023/08/12 15:00:56;;;;;;;;;;;;;;;;;;5022108;28;20381;-75
2023/08/12 15:03:43;;;;;;;;;;;;;;;;;;5019813;28;19933;-74
2023/08/12 15:06:29;;;;;;;;;;;;;;;;;;5021638;28;20464;-75
2023/08/12 15:09:16;;;;;;;;;;;;;;;;;;5023873;28;19927;-75
2023/08/12 15:12:02;;;;;;;;;;;;;;;;;;5021674;28;19928;-75
2023/08/12 15:14:49;;;;;;;;;;;;;;;;;;5015665;28;19937;-75
2023/08/12 15:17:35;;;;;;;;;;;;;;;;;;5020240;28;19927;-74
2023/08/12 15:20:21;;;;;;;;;;;;;;;;;;5023143;28;19932;-75
2023/08/12 15:23:08;;;;;;;;;;;;;;;;;;5023102;28;20062;-74
2023/08/12 15:25:55;;;;;;;;;;;;;;;;;;5017655;28;19922;-74
2023/08/12 15:28:41;;;;;;;;;;;;;;;;;;5024978;28;19917;-75
2023/08/12 15:31:28;;;;;;;;;;;;;;;;;;5012760;28;21108;-75
2023/08/12 15:34:14;;;;;;;;;;;;;;;;;;5023363;28;19913;-75
2023/08/12 15:37:01;;;;;;;;;;;;;;;;;;5021431;28;19948;-75
2023/08/12 15:39:47;;;;;;;;;;;;;;;;;;5024759;28;19938;-74
2023/08/12 15:42:34;;;;;;;;;;;;;;;;;;5023315;28;20400;-74
2023/08/12 15:45:20;;;;;;;;;;;;;;;;;;5019861;28;19917;-74
2023/08/12 15:48:07;;;;;;;;;;;;;;;;;;5033125;28;19956;-74
2023/08/12 15:50:53;;;;;;;;;;;;;;;;;;5043475;28;19917;-74
2023/08/12 15:53:40;;;;;;;;;;;;;;;;;;5038579;28;20377;-74
2023/08/12 15:56:27;;;;;;;;;;;;;;;;;;5037392;28;19917;-75
2023/08/12 15:59:13;;;;;;;;;;;;;;;;;;5041669;28;20012;-75
2023/08/12 16:02:00;;;;;;;;;;;;;;;;;;5036838;28;19945;-74
2023/08/12 16:04:47;;;;;;;;;;;;;;;;;;5016296;28;19917;-74
2023/08/12 16:07:34;;;;;;;;;;;;;;;;;;5042139;28;19917;-73
2023/08/12 16:10:20;;;;;;;;;;;;;;;;;;5025892;28;20773;-74
2023/08/12 16:13:07;;;;;;;;;;;;;;;;;;5035887;28;19981;-73
2023/08/12 16:15:53;;;;;;;;;;;;;;;;;;5037317;28;19962;-74
2023/08/12 16:18:40;;;;;;;;;;;;;;;;;;5032940;28;19924;-75
2023/08/12 16:21:27;;;;;;;;;;;;;;;;;;5026196;28;19905;-75
2023/08/12 16:24:13;;;;;;;;;;;;;;;;;;5037135;28;20401;-75
2023/08/12 16:27:00;;;;;;;;;;;;;;;;;;5029184;28;19917;-75
2023/08/12 16:29:46;;;;;;;;;;;;;;;;;;5026081;28;20430;-75
2023/08/12 16:32:33;;;;;;;;;;;;;;;;;;5026263;28;19924;-74
2023/08/12 16:35:19;;;;;;;;;;;;;;;;;;5013028;28;19913;-73
2023/08/12 16:38:06;;;;;;;;;;;;;;;;;;5025620;28;19925;-73
2023/08/12 16:40:52;;;;;;;;;;;;;;;;;;4999328;28;20318;-74
2023/08/12 16:43:39;;;;;;;;;;;;;;;;;;5017482;28;19929;-74
2023/08/12 16:46:25;;;;;;;;;;;;;;;;;;5002600;28;19947;-74
2023/08/12 16:49:11;;;;;;;;;;;;;;;;;;5021995;28;19917;-74
2023/08/12 16:51:58;;;;;;;;;;;;;;;;;;5019460;28;19927;-75
2023/08/12 16:54:44;;;;;;;;;;;;;;;;;;5017509;28;19925;-74
2023/08/12 16:57:31;;;;;;;;;;;;;;;;;;5012333;28;20048;-75
2023/08/12 17:00:18;;;;;;;;;;;;;;;;;;5023186;28;19928;-74
2023/08/12 17:03:05;;;;;;;;;;;;;;;;;;5022179;28;19929;-75
2023/08/12 17:05:51;;;;;;;;;;;;;;;;;;5013395;28;19925;-75
2023/08/12 17:08:38;;;;;;;;;;;;;;;;;;5013621;28;19929;-76
2023/08/12 17:11:24;;;;;;;;;;;;;;;;;;5008677;28;20271;-75
2023/08/12 17:14:11;;;;;;;;;;;;;;;;;;5000962;28;19929;-75
2023/08/12 17:16:57;;;;;;;;;;;;;;;;;;5009533;28;19928;-75
2023/08/12 17:19:44;;;;;;;;;;;;;;;;;;5010813;28;19917;-74
2023/08/12 17:22:30;;;;;;;;;;;;;;;;;;5021484;28;19928;-73
2023/08/12 17:25:17;;;;;;;;;;;;;;;;;;5024314;28;20349;-73
2023/08/12 17:28:03;;;;;;;;;;;;;;;;;;5008773;28;19917;-73
2023/08/12 17:30:52;;;;;;;;;;;;;;;;;;4999412;28;20395;-75
2023/08/12 17:33:39;;;;;;;;;;;;;;;;;;4999120;28;19928;-74
2023/08/12 17:36:25;;;;;;;;;;;;;;;;;;5019863;28;20008;-75
2023/08/12 17:39:11;;;;;;;;;;;;;;;;;;5016343;28;19914;-75
2023/08/12 17:41:58;;;;;;;;;;;;;;;;;;5012703;28;19921;-75
2023/08/12 17:44:45;;;;;;;;;;;;;;;;;;5021509;28;20320;-75
2023/08/12 17:47:31;;;;;;;;;;;;;;;;;;5019911;28;19928;-76
2023/08/12 17:50:17;;;;;;;;;;;;;;;;;;5028390;28;19923;-74
2023/08/12 17:53:04;;;;;;;;;;;;;;;;;;5008389;28;19928;-75
2023/08/12 17:55:50;;;;;;;;;;;;;;;;;;5018483;28;19928;-75
2023/08/12 17:58:37;;;;;;;;;;;;;;;;;;5022294;28;19928;-75
2023/08/12 18:01:23;;;;;;;;;;;;;;;;;;5016368;28;19919;-75
2023/08/12 18:04:10;;;;;;;;;;;;;;;;;;5021972;28;19932;-74
2023/08/12 18:06:56;;;;;;;;;;;;;;;;;;5021864;28;19925;-74
2023/08/12 18:09:43;;;;;;;;;;;;;;;;;;5018305;28;19917;-75
2023/08/12 18:12:29;;;;;;;;;;;;;;;;;;5012090;28;19919;-75
2023/08/12 18:15:16;;;;;;;;;;;;;;;;;;5018006;28;19924;-75
2023/08/12 18:18:02;;;;;;;;;;;;;;;;;;5020441;28;20376;-74
2023/08/12 18:20:49;;;;;;;;;;;;;;;;;;5015989;28;19917;-74
2023/08/12 18:23:35;;;;;;;;;;;;;;;;;;5023527;28;19943;-74
2023/08/12 18:26:22;;;;;;;;;;;;;;;;;;5019533;28;20381;-73
2023/08/12 18:29:08;;;;;;;;;;;;;;;;;;5026667;28;19918;-74
2023/08/12 18:31:55;;;;;;;;;;;;;;;;;;5011258;28;19936;-74
2023/08/12 18:34:41;;;;;;;;;;;;;;;;;;5027705;28;19913;-74
2023/08/12 18:37:27;;;;;;;;;;;;;;;;;;5023392;28;19928;-74
2023/08/12 18:40:14;;;;;;;;;;;;;;;;;;5027347;28;19916;-74
2023/08/12 18:43:00;;;;;;;;;;;;;;;;;;5022547;28;19925;-74
2023/08/12 18:45:47;;;;;;;;;;;;;;;;;;5012050;28;19933;-74
2023/08/12 18:48:33;;;;;;;;;;;;;;;;;;5029059;28;20653;-76
2023/08/12 18:51:20;;;;;;;;;;;;;;;;;;5023127;28;19924;-73
2023/08/12 18:54:07;;;;;;;;;;;;;;;;;;5016356;28;19918;-74
2023/08/12 18:56:53;;;;;;;;;;;;;;;;;;5016478;28;19928;-74